»·PEaware :: BTQ701 KPDX-KSEA

BTQ701 :: KPDX-KSEA

FLIGHT INFORMATION

Flight Status: Arrived
Operator: Unknown
More flights by this operator :: More flights under this callsign
Pilot: Armando C. (16967)
Aircraft: PILATUS PC-12 EAGLE
(PC12)
More flights by this aircraft type
Origin: KPDX Portland Intl
United States
Destination: KSEA Seattle-Tacoma Intl
United States
More flights between these airports :: More routes between these airports
Route: +PTLD1 COUGA KRIEG HAWKZ6
File this flight plan on PilotEdge
Remarks:
Altitude:
(Current/Filed)
18,000ft
Speed:
(Current/Filed)
230kts
Departed: 11-Dec-17 10:51 AM
Arrived: 11-Dec-17 11:39 AM
Distance/Time
Traveled:
112nm/0:48
Distance/Time
To Go:
Arrived

Flight Plot

Page will automatically refresh every two minutes.

Flight plan parsing failed; only flown route is shown


Map Options




Map Legend


Flown Route
Filed Route
Departure Airport
Arrival Airport
Navaid (VOR, NDB)
Fix

Horizontal Profiles

Position Reports

Time Latitude Longitude Heading Altitude Ground
Speed
11-Dec-17 10:36 45.587984 -122.594801 28 33ft 0kts
11-Dec-17 10:37 45.587984 -122.594801 28 33ft 0kts
11-Dec-17 10:38 45.587984 -122.594801 28 33ft 0kts
11-Dec-17 10:39 45.587985 -122.594800 28 33ft 0kts
11-Dec-17 10:40 45.587985 -122.594800 28 33ft 0kts
11-Dec-17 10:41 45.587985 -122.594800 28 33ft 0kts
11-Dec-17 10:42 45.587985 -122.594800 28 33ft 0kts
11-Dec-17 10:43 45.587985 -122.594800 28 33ft 0kts
11-Dec-17 10:44 45.587985 -122.594800 28 33ft 0kts
11-Dec-17 10:45 45.587985 -122.594800 28 33ft 0kts
11-Dec-17 10:46 45.587985 -122.594800 28 33ft 0kts
11-Dec-17 10:47 45.587985 -122.594800 28 33ft 0kts
11-Dec-17 10:48 45.587985 -122.594800 28 33ft 0kts
11-Dec-17 10:49 45.587985 -122.594800 28 33ft 0kts
11-Dec-17 10:50 45.587873 -122.594806 220 33ft 3kts
11-Dec-17 10:51 45.588798 -122.599645 299 33ft 19kts
11-Dec-17 10:52 45.590839 -122.602932 46 33ft 6kts
11-Dec-17 10:53 45.592929 -122.599926 47 33ft 13kts
11-Dec-17 10:54 45.594693 -122.597216 44 33ft 0kts
11-Dec-17 10:55 45.594694 -122.597216 44 33ft 0kts
11-Dec-17 10:56 45.594731 -122.597163 44 33ft 4kts
11-Dec-17 10:57 45.587419 -122.578015 118 601ft 118kts
11-Dec-17 10:58 45.567032 -122.532212 125 2864ft 138kts
11-Dec-17 10:59 45.549747 -122.479507 119 4789ft 154kts
11-Dec-17 11:00 45.532253 -122.421771 114 6597ft 165kts
11-Dec-17 11:01 45.567002 -122.389359 340 8414ft 200kts
11-Dec-17 11:02 45.620442 -122.417719 336 10228ft 208kts
11-Dec-17 11:03 45.675125 -122.447293 336 12029ft 212kts
11-Dec-17 11:04 45.730109 -122.477742 336 13803ft 217kts
11-Dec-17 11:04 45.778387 -122.504506 336 15333ft 221kts
11-Dec-17 11:06 45.845540 -122.541555 336 17427ft 221kts
11-Dec-17 11:06 45.893662 -122.567850 336 18509ft 238kts
11-Dec-17 11:08 45.958759 -122.606983 336 17962ft 243kts
11-Dec-17 11:08 46.010200 -122.638825 336 17911ft 241kts
11-Dec-17 11:10 46.082317 -122.683525 336 17911ft 241kts
11-Dec-17 11:10 46.137020 -122.695105 359 17913ft 241kts
11-Dec-17 11:11 46.204019 -122.700618 353 17911ft 241kts
11-Dec-17 11:12 46.270866 -122.712673 352 17911ft 241kts
11-Dec-17 11:13 46.337626 -122.722113 357 17911ft 241kts
11-Dec-17 11:14 46.404691 -122.725484 358 17911ft 241kts
11-Dec-17 11:15 46.472845 -122.728085 358 17054ft 245kts
11-Dec-17 11:16 46.541007 -122.730564 358 16056ft 245kts
11-Dec-17 11:17 46.609339 -122.733024 358 15054ft 245kts
11-Dec-17 11:18 46.677497 -122.735455 358 14057ft 245kts
11-Dec-17 11:19 46.745763 -122.737816 358 13059ft 246kts
11-Dec-17 11:20 46.809980 -122.709841 34 12059ft 246kts
11-Dec-17 11:21 46.861396 -122.645870 42 11984ft 243kts
11-Dec-17 11:22 46.910200 -122.577654 44 11985ft 243kts
11-Dec-17 11:23 46.959756 -122.510342 34 11979ft 243kts
11-Dec-17 11:24 47.023156 -122.476643 5 11012ft 246kts
11-Dec-17 11:25 47.091676 -122.476550 357 10074ft 245kts
11-Dec-17 11:26 47.159472 -122.480213 358 9985ft 241kts
11-Dec-17 11:27 47.224705 -122.474604 4 9894ft 233kts
11-Dec-17 11:28 47.290127 -122.466727 4 8895ft 232kts
11-Dec-17 11:29 47.353396 -122.459084 4 8026ft 221kts
11-Dec-17 11:30 47.414592 -122.451674 4 7302ft 220kts
11-Dec-17 11:31 47.474498 -122.451639 357 6297ft 210kts
11-Dec-17 11:32 47.532039 -122.455044 357 5409ft 206kts
11-Dec-17 11:33 47.588686 -122.458416 357 4410ft 201kts
11-Dec-17 11:34 47.643616 -122.461688 357 3986ft 193kts
11-Dec-17 11:35 47.696761 -122.455864 39 3983ft 198kts
11-Dec-17 11:36 47.702920 -122.377263 96 3986ft 200kts
11-Dec-17 11:37 47.680733 -122.306028 151 3645ft 201kts
11-Dec-17 11:38 47.631040 -122.306055 180 2890ft 164kts
11-Dec-17 11:39 47.588388 -122.306516 178 3046ft 136kts
11-Dec-17 11:40 47.555776 -122.306709 181 2292ft 105kts
11-Dec-17 11:41 47.526857 -122.307212 180 1700ft 102kts
11-Dec-17 11:42 47.499922 -122.307361 180 1193ft 92kts
11-Dec-17 11:43 47.474714 -122.307632 180 708ft 87kts
11-Dec-17 11:44 47.454831 -122.307780 177 436ft 25kts
11-Dec-17 11:45 47.452192 -122.306782 140 436ft 0kts
11-Dec-17 11:46 47.451632 -122.306255 169 436ft 15kts
11-Dec-17 11:47 47.447594 -122.305893 103 436ft 6kts
11-Dec-17 11:48 47.447059 -122.300818 58 436ft 14kts
11-Dec-17 11:49 47.446601 -122.299839 138 436ft 0kts
11-Dec-17 11:50 47.446601 -122.299839 138 436ft 0kts
11-Dec-17 11:51 47.446601 -122.299839 138 436ft 0kts
11-Dec-17 11:52 47.446601 -122.299839 138 436ft 0kts
11-Dec-17 11:53 47.446601 -122.299839 138 436ft 0kts
11-Dec-17 11:54 47.446601 -122.299839 138 436ft 0kts
11-Dec-17 11:55 47.446601 -122.299839 138 436ft 0kts
11-Dec-17 11:56 47.446601 -122.299839 138 436ft 0kts
11-Dec-17 11:57 47.446601 -122.299839 138 436ft 0kts
11-Dec-17 11:58 47.446601 -122.299839 138 436ft 0kts
11-Dec-17 11:59 47.446601 -122.299839 138 436ft 0kts

Navigation Log

Ident Type
Flight plan parsing failed, navigation log unavailable